Time;durP1;ratioP1;P1;durP2;ratioP2;P2;SDS_P1;SDS_P2;PMS_P1;PMS_P2;Temp;Humidity;BMP_temperature;BMP_pressure;BME280_temperature;BME280_humidity;BME280_pressure;Samples;Min_cycle;Max_cycle;Signal;HPM_P1;HPM_P2
2024/02/23 00:00:11;;;;;;;0.30;0.20;;;5.10;99.90;;;;;;4960122;28;20457;-81
2024/02/23 00:02:38;;;;;;;0.30;0.20;;;5.00;99.90;;;;;;4959702;29;20438;-81
2024/02/23 00:05:05;;;;;;;0.30;0.30;;;5.10;99.90;;;;;;4960116;29;20468;-81
2024/02/23 00:07:32;;;;;;;0.30;0.30;;;5.00;99.90;;;;;;4959449;28;20537;-81
2024/02/23 00:10:00;;;;;;;0.30;0.20;;;5.10;99.90;;;;;;4959564;29;20809;-81
2024/02/23 00:12:26;;;;;;;0.30;0.20;;;5.00;99.90;;;;;;4958452;29;20442;-81
2024/02/23 00:14:53;;;;;;;0.30;0.20;;;6.00;99.90;;;;;;4959106;28;20470;-81
2024/02/23 00:17:20;;;;;;;0.30;0.30;;;5.00;99.90;;;;;;4958854;29;20508;-81
2024/02/23 00:19:47;;;;;;;0.30;0.20;;;5.00;99.90;;;;;;4960543;28;20455;-81
2024/02/23 00:22:14;;;;;;;0.30;0.30;;;5.00;99.90;;;;;;4960986;29;20457;-81
2024/02/23 00:24:41;;;;;;;0.30;0.20;;;5.00;99.90;;;;;;4960542;28;20482;-81
2024/02/23 00:27:09;;;;;;;0.30;0.30;;;5.00;99.90;;;;;;4961175;29;20880;-81
2024/02/23 00:29:36;;;;;;;0.30;0.20;;;5.00;99.90;;;;;;4960196;29;20489;-81
2024/02/23 00:32:03;;;;;;;0.30;0.20;;;5.10;99.90;;;;;;4960826;28;20482;-81
2024/02/23 00:34:31;;;;;;;0.30;0.30;;;5.10;99.90;;;;;;4960090;28;20486;-81
2024/02/23 00:36:58;;;;;;;0.30;0.20;;;5.10;99.90;;;;;;4960984;29;20463;-81
2024/02/23 00:39:25;;;;;;;0.30;0.30;;;5.20;99.90;;;;;;4960397;29;20450;-81
2024/02/23 00:41:52;;;;;;;0.30;0.20;;;5.10;99.90;;;;;;4960233;29;20962;-81
2024/02/23 00:44:20;;;;;;;0.30;0.20;;;5.10;99.90;;;;;;4959932;28;21021;-81
2024/02/23 00:46:46;;;;;;;0.30;0.30;;;5.10;99.90;;;;;;4960239;29;20493;-81
2024/02/23 00:49:13;;;;;;;0.30;0.20;;;5.00;99.90;;;;;;4960108;28;20454;-81
2024/02/23 00:51:40;;;;;;;0.30;0.27;;;5.00;99.90;;;;;;4960241;29;20832;-81
2024/02/23 00:54:07;;;;;;;0.30;0.30;;;5.00;99.90;;;;;;4960270;29;20485;-81
2024/02/23 00:56:34;;;;;;;0.30;0.20;;;5.00;99.90;;;;;;4960174;28;20450;-81
2024/02/23 00:59:01;;;;;;;0.40;0.40;;;5.00;99.90;;;;;;4959812;29;20460;-81
2024/02/23 01:01:29;;;;;;;0.30;0.30;;;4.90;99.90;;;;;;4960275;29;20454;-81
2024/02/23 01:03:56;;;;;;;0.30;0.30;;;4.90;99.90;;;;;;4959625;28;20482;-81
2024/02/23 01:06:23;;;;;;;0.30;0.20;;;4.90;99.90;;;;;;4959634;28;20450;-81
2024/02/23 01:08:50;;;;;;;0.30;0.20;;;4.80;99.90;;;;;;4959739;28;20547;-81
2024/02/23 01:11:17;;;;;;;0.30;0.20;;;4.80;99.90;;;;;;4960116;29;20445;-81
2024/02/23 01:13:43;;;;;;;0.30;0.30;;;4.80;99.90;;;;;;4959547;29;20474;-81
2024/02/23 01:16:10;;;;;;;0.30;0.20;;;4.90;99.90;;;;;;4959309;29;20951;-81
2024/02/23 01:18:38;;;;;;;0.30;0.20;;;5.00;99.90;;;;;;4959774;28;20446;-81
2024/02/23 01:21:05;;;;;;;0.30;0.20;;;4.90;99.90;;;;;;4959961;28;20458;-81
2024/02/23 01:23:32;;;;;;;0.30;0.27;;;5.00;99.90;;;;;;4959804;28;20481;-81
2024/02/23 01:26:00;;;;;;;0.30;0.20;;;5.00;99.90;;;;;;4959139;29;20438;-81
2024/02/23 01:28:26;;;;;;;0.30;0.20;;;5.00;99.90;;;;;;4959821;29;20901;-81
2024/02/23 01:30:53;;;;;;;2.33;0.40;;;5.00;99.90;;;;;;4959626;29;20446;-81
2024/02/23 01:33:20;;;;;;;1.17;0.70;;;5.00;99.90;;;;;;4959153;29;20470;-81
2024/02/23 01:35:48;;;;;;;0.30;0.20;;;4.90;99.90;;;;;;4960787;28;20457;-81
2024/02/23 01:38:18;;;;;;;0.30;0.20;;;4.90;99.90;;;;;;4960503;29;20453;-81
2024/02/23 01:40:45;;;;;;;0.30;0.20;;;4.80;99.90;;;;;;4964143;29;20900;-81
2024/02/23 01:43:12;;;;;;;0.30;0.30;;;4.80;99.90;;;;;;4964443;29;20470;-81
2024/02/23 01:45:39;;;;;;;0.30;0.30;;;4.80;99.90;;;;;;4964461;29;20446;-81
2024/02/23 01:48:07;;;;;;;0.30;0.30;;;4.80;99.90;;;;;;4961067;29;20489;-81
2024/02/23 01:50:34;;;;;;;0.30;0.20;;;4.80;99.90;;;;;;4959176;29;21067;-81
2024/02/23 01:53:03;;;;;;;0.30;0.20;;;4.80;99.90;;;;;;4958881;29;20434;-81
2024/02/23 01:55:30;;;;;;;1.83;0.67;;;4.60;99.90;;;;;;4958467;29;20482;-81
2024/02/23 01:57:57;;;;;;;0.30;0.20;;;4.60;99.90;;;;;;4958907;28;20501;-81
2024/02/23 02:00:24;;;;;;;0.30;0.20;;;4.60;99.90;;;;;;4958938;28;20458;-81
2024/02/23 02:02:51;;;;;;;0.30;0.30;;;4.60;99.90;;;;;;4959257;29;20451;-81
2024/02/23 02:05:18;;;;;;;0.30;0.30;;;4.60;99.90;;;;;;4958997;29;20457;-81
2024/02/23 02:07:46;;;;;;;0.30;0.30;;;4.60;99.90;;;;;;4958999;29;20474;-81
2024/02/23 02:10:14;;;;;;;0.30;0.30;;;4.60;99.90;;;;;;4958701;28;20450;-81
2024/02/23 02:12:41;;;;;;;0.30;0.30;;;4.60;99.90;;;;;;4959116;29;20823;-81
2024/02/23 02:15:08;;;;;;;0.30;0.30;;;4.50;99.90;;;;;;4958883;29;20470;-81
2024/02/23 02:17:35;;;;;;;0.30;0.30;;;4.50;99.90;;;;;;4959877;28;20446;-81
2024/02/23 02:20:05;;;;;;;0.40;0.40;;;4.60;99.90;;;;;;4962077;28;20454;-81
2024/02/23 02:22:34;;;;;;;0.30;0.20;;;4.60;99.90;;;;;;4962041;29;20954;-81
2024/02/23 02:25:01;;;;;;;0.30;0.20;;;4.60;99.90;;;;;;4961537;28;20536;-81
2024/02/23 02:27:29;;;;;;;0.30;0.20;;;4.60;99.90;;;;;;4961940;29;20482;-81
2024/02/23 02:29:55;;;;;;;0.30;0.20;;;4.60;99.90;;;;;;4962108;28;20459;-81
2024/02/23 02:32:22;;;;;;;0.30;0.30;;;4.60;99.90;;;;;;4961940;29;20457;-81
2024/02/23 02:34:49;;;;;;;0.30;0.30;;;4.60;99.90;;;;;;4961804;29;20509;-81
2024/02/23 02:37:16;;;;;;;0.30;0.30;;;4.50;99.90;;;;;;4961204;28;20446;-81
2024/02/23 02:39:43;;;;;;;0.30;0.20;;;4.50;99.90;;;;;;4962047;29;20830;-81
2024/02/23 02:42:09;;;;;;;0.30;0.20;;;4.60;99.90;;;;;;4961278;28;20450;-81
2024/02/23 02:44:37;;;;;;;0.30;0.20;;;4.60;99.90;;;;;;4960677;28;20462;-81
2024/02/23 02:47:04;;;;;;;0.30;0.30;;;4.50;99.90;;;;;;4960844;28;20487;-81
2024/02/23 02:49:31;;;;;;;0.30;0.20;;;4.50;99.90;;;;;;4960658;29;20907;-81
2024/02/23 02:51:58;;;;;;;0.30;0.30;;;4.50;99.90;;;;;;4960688;29;20454;-80
2024/02/23 02:54:24;;;;;;;0.30;0.20;;;4.40;99.90;;;;;;4961091;29;20806;-80
2024/02/23 02:56:54;;;;;;;6.33;0.50;;;4.40;99.90;;;;;;4960442;28;20450;-80
2024/02/23 02:59:20;;;;;;;0.30;0.30;;;4.40;99.90;;;;;;4960973;28;20453;-80
2024/02/23 03:01:48;;;;;;;1.23;0.40;;;4.40;99.90;;;;;;4960897;29;20458;-80
2024/02/23 03:04:16;;;;;;;0.30;0.30;;;4.40;99.90;;;;;;4960477;28;20478;-80
2024/02/23 03:06:43;;;;;;;0.40;0.30;;;4.40;99.90;;;;;;4960174;28;20792;-80
2024/02/23 03:09:10;;;;;;;0.60;0.37;;;4.30;99.90;;;;;;4960741;28;20446;-80
2024/02/23 03:11:37;;;;;;;0.40;0.30;;;4.30;99.90;;;;;;4960234;28;20822;-80
2024/02/23 03:14:04;;;;;;;0.30;0.30;;;4.30;99.90;;;;;;4960122;28;20909;-80
2024/02/23 03:16:31;;;;;;;0.30;0.20;;;4.30;99.90;;;;;;4959964;29;20449;-80
2024/02/23 03:18:59;;;;;;;0.40;0.30;;;4.30;99.90;;;;;;4959704;29;20482;-80
2024/02/23 03:21:26;;;;;;;0.30;0.20;;;4.30;99.90;;;;;;4960003;29;20438;-80
2024/02/23 03:23:52;;;;;;;0.30;0.30;;;4.30;99.90;;;;;;4959583;28;20485;-80
2024/02/23 03:26:19;;;;;;;0.30;0.20;;;4.30;99.90;;;;;;4959975;28;20897;-80
2024/02/23 03:28:46;;;;;;;0.30;0.30;;;4.30;99.90;;;;;;4959590;28;20482;-80
2024/02/23 03:31:13;;;;;;;0.30;0.20;;;4.30;99.90;;;;;;4960294;29;20800;-80
2024/02/23 03:33:40;;;;;;;0.40;0.40;;;4.40;99.90;;;;;;4960364;28;20827;-80
2024/02/23 03:36:08;;;;;;;0.30;0.20;;;4.40;99.90;;;;;;4960385;29;20496;-80
2024/02/23 03:38:35;;;;;;;0.97;0.40;;;4.30;99.90;;;;;;4959795;28;20443;-80
2024/02/23 03:41:01;;;;;;;0.30;0.27;;;4.30;99.90;;;;;;4960870;29;20450;-80
2024/02/23 03:43:28;;;;;;;0.70;0.40;;;4.30;99.90;;;;;;4960366;29;20760;-80
2024/02/23 03:45:55;;;;;;;0.30;0.20;;;4.20;99.90;;;;;;4960387;28;20446;-80
2024/02/23 03:48:22;;;;;;;0.50;0.30;;;4.20;99.90;;;;;;4960051;28;20481;-80
2024/02/23 03:50:48;;;;;;;0.30;0.30;;;4.20;99.90;;;;;;4958255;29;20455;-80
2024/02/23 03:53:16;;;;;;;0.30;0.30;;;4.20;99.90;;;;;;4958337;29;20469;-80
2024/02/23 03:55:43;;;;;;;0.30;0.27;;;4.20;99.90;;;;;;4958722;28;20454;-80
2024/02/23 03:58:10;;;;;;;0.30;0.20;;;4.20;99.90;;;;;;4958882;28;20446;-80
2024/02/23 04:00:37;;;;;;;2.20;0.40;;;4.20;99.90;;;;;;4958865;29;20446;-80
2024/02/23 04:03:03;;;;;;;0.30;0.20;;;4.20;99.90;;;;;;4958983;29;20454;-80
2024/02/23 04:05:30;;;;;;;0.30;0.30;;;4.30;99.90;;;;;;4959026;28;20461;-80
2024/02/23 04:07:57;;;;;;;0.60;0.30;;;4.30;99.90;;;;;;4960092;28;20497;-81
2024/02/23 04:10:25;;;;;;;0.30;0.20;;;4.30;99.90;;;;;;4960816;29;20562;-80
2024/02/23 04:12:52;;;;;;;0.30;0.20;;;4.30;99.90;;;;;;4960004;29;20450;-81
2024/02/23 04:15:19;;;;;;;0.30;0.30;;;4.30;99.90;;;;;;4960472;29;20454;-81
2024/02/23 04:17:46;;;;;;;0.30;0.20;;;4.30;99.90;;;;;;4964098;29;20442;-81
2024/02/23 04:20:13;;;;;;;0.30;0.30;;;4.30;99.90;;;;;;4964023;28;20453;-80
2024/02/23 04:22:40;;;;;;;0.40;0.40;;;4.30;99.90;;;;;;4963612;29;20447;-80
2024/02/23 04:25:07;;;;;;;0.40;0.40;;;4.30;99.90;;;;;;4962134;29;20989;-80
2024/02/23 04:27:34;;;;;;;0.30;0.30;;;4.30;99.90;;;;;;4959959;29;20486;-80
2024/02/23 04:30:01;;;;;;;0.30;0.30;;;4.20;99.90;;;;;;4960627;28;20511;-80
2024/02/23 04:32:27;;;;;;;0.30;0.20;;;4.20;99.90;;;;;;4959938;28;20817;-80
2024/02/23 04:34:54;;;;;;;0.30;0.30;;;4.20;99.90;;;;;;4959588;28;20478;-80
2024/02/23 04:37:21;;;;;;;0.30;0.30;;;4.20;99.90;;;;;;4959852;28;20455;-80
2024/02/23 04:39:47;;;;;;;0.30;0.30;;;4.20;99.90;;;;;;4959229;28;20455;-80
2024/02/23 04:42:14;;;;;;;0.30;0.30;;;4.20;99.90;;;;;;4960143;29;20453;-80
2024/02/23 04:44:43;;;;;;;0.50;0.50;;;4.20;99.90;;;;;;4959912;29;20481;-79
2024/02/23 04:47:10;;;;;;;0.50;0.37;;;4.20;99.90;;;;;;4962029;29;20442;-79
2024/02/23 04:49:37;;;;;;;0.30;0.30;;;4.20;99.90;;;;;;4960471;28;21010;-80
2024/02/23 04:52:05;;;;;;;0.30;0.20;;;4.20;99.90;;;;;;4960610;28;20457;-80
2024/02/23 04:54:32;;;;;;;0.30;0.30;;;4.20;99.90;;;;;;4959979;28;20475;-80
2024/02/23 04:56:59;;;;;;;0.30;0.30;;;4.20;99.90;;;;;;4960341;29;20833;-80
2024/02/23 04:59:26;;;;;;;0.30;0.20;;;4.20;99.90;;;;;;4959611;28;20446;-80
2024/02/23 05:01:54;;;;;;;0.40;0.30;;;4.20;99.90;;;;;;4959655;29;20439;-80
2024/02/23 05:04:20;;;;;;;0.30;0.30;;;4.20;99.90;;;;;;4959893;28;20478;-80
2024/02/23 05:06:47;;;;;;;0.33;0.33;;;4.20;99.90;;;;;;4960174;28;20446;-80
2024/02/23 05:09:14;;;;;;;0.30;0.30;;;4.10;99.90;;;;;;4959452;28;20486;-81
2024/02/23 05:11:41;;;;;;;0.30;0.27;;;4.10;99.90;;;;;;4959633;29;20461;-81
2024/02/23 05:14:08;;;;;;;0.40;0.40;;;4.10;99.90;;;;;;4959465;28;21030;-81
2024/02/23 05:16:34;;;;;;;0.30;0.30;;;4.10;99.90;;;;;;4959003;29;20442;-81
2024/02/23 05:19:02;;;;;;;0.70;0.47;;;4.10;99.90;;;;;;4959361;28;20442;-81
2024/02/23 05:21:29;;;;;;;0.30;0.30;;;4.00;99.90;;;;;;4958402;28;20446;-81
2024/02/23 05:23:56;;;;;;;0.30;0.20;;;4.10;99.90;;;;;;4958716;29;20485;-81
2024/02/23 05:26:23;;;;;;;0.30;0.30;;;4.00;99.90;;;;;;4959416;28;20830;-80
2024/02/23 05:28:49;;;;;;;0.30;0.30;;;4.00;99.90;;;;;;4959182;29;20481;-80
2024/02/23 05:31:17;;;;;;;1.17;0.50;;;4.00;99.90;;;;;;4959479;29;20454;-80
2024/02/23 05:33:43;;;;;;;0.30;0.20;;;4.00;99.90;;;;;;4959105;29;20573;-80
2024/02/23 05:36:12;;;;;;;0.30;0.30;;;4.00;99.90;;;;;;4959175;29;20460;-80
2024/02/23 05:38:39;;;;;;;0.30;0.30;;;4.00;99.90;;;;;;4959586;29;20466;-80
2024/02/23 05:41:06;;;;;;;0.30;0.30;;;4.00;99.90;;;;;;4959996;29;20458;-80
2024/02/23 05:43:32;;;;;;;0.57;0.40;;;4.00;99.90;;;;;;4961628;28;20478;-80
2024/02/23 05:45:59;;;;;;;0.33;0.30;;;3.90;99.90;;;;;;4960961;28;20445;-80
2024/02/23 05:48:26;;;;;;;0.97;0.30;;;4.00;99.90;;;;;;4961429;29;20489;-80
2024/02/23 05:50:52;;;;;;;1.07;0.87;;;3.90;99.90;;;;;;4960726;28;20450;-80
2024/02/23 05:53:20;;;;;;;0.30;0.20;;;3.90;99.90;;;;;;4964460;29;20462;-80
2024/02/23 05:55:47;;;;;;;0.67;0.67;;;3.90;99.90;;;;;;4964019;29;20442;-80
2024/02/23 05:58:16;;;;;;;1.17;0.30;;;3.90;99.90;;;;;;4964260;28;20798;-80
2024/02/23 06:00:43;;;;;;;0.30;0.20;;;3.80;99.90;;;;;;4964933;29;20446;-80
2024/02/23 06:03:09;;;;;;;0.40;0.37;;;3.80;99.90;;;;;;4964173;28;20841;-80
2024/02/23 06:05:36;;;;;;;0.30;0.20;;;3.70;99.90;;;;;;4963918;28;20439;-80
2024/02/23 06:08:03;;;;;;;0.30;0.30;;;3.70;99.90;;;;;;4963460;28;20485;-80
2024/02/23 06:10:31;;;;;;;0.30;0.20;;;3.80;99.90;;;;;;4963606;28;20446;-80
2024/02/23 06:12:58;;;;;;;0.30;0.30;;;3.80;99.90;;;;;;4964253;28;20450;-80
2024/02/23 06:15:24;;;;;;;0.30;0.30;;;3.90;99.90;;;;;;4964036;28;20450;-80
2024/02/23 06:17:51;;;;;;;0.30;0.20;;;3.90;99.90;;;;;;4964018;28;20450;-80
2024/02/23 06:20:19;;;;;;;0.30;0.20;;;3.90;99.90;;;;;;4962603;28;20449;-80
2024/02/23 06:22:46;;;;;;;0.30;0.30;;;3.90;99.90;;;;;;4963052;29;20450;-80
2024/02/23 06:25:13;;;;;;;0.40;0.40;;;3.90;99.90;;;;;;4962715;29;20478;-80
2024/02/23 06:27:41;;;;;;;0.30;0.20;;;3.90;99.90;;;;;;4963262;29;20824;-80
2024/02/23 06:30:10;;;;;;;0.30;0.30;;;4.00;99.90;;;;;;4965443;28;20541;-80
2024/02/23 06:32:37;;;;;;;1.00;0.40;;;4.00;99.90;;;;;;4963372;28;20465;-80
2024/02/23 06:35:06;;;;;;;0.30;0.30;;;4.00;99.90;;;;;;4961752;29;20478;-80
2024/02/23 06:37:33;;;;;;;0.40;0.30;;;4.00;99.90;;;;;;4961795;29;20446;-80
2024/02/23 06:40:00;;;;;;;0.30;0.30;;;4.00;99.90;;;;;;4961469;28;20456;-80
2024/02/23 06:42:27;;;;;;;1.27;0.40;;;4.00;99.90;;;;;;4961769;28;20438;-80
2024/02/23 06:44:55;;;;;;;0.30;0.30;;;4.10;99.90;;;;;;4961189;29;20557;-80
2024/02/23 06:47:22;;;;;;;0.40;0.30;;;4.20;99.90;;;;;;4961377;28;20458;-80
2024/02/23 06:49:48;;;;;;;0.30;0.30;;;4.20;99.90;;;;;;4961380;28;20485;-80
2024/02/23 06:52:15;;;;;;;0.40;0.30;;;4.30;99.90;;;;;;4961926;28;20443;-80
2024/02/23 06:54:42;;;;;;;0.40;0.30;;;4.30;99.90;;;;;;4961645;28;21099;-80
2024/02/23 06:57:08;;;;;;;0.40;0.40;;;4.30;99.90;;;;;;4961065;29;20458;-81
2024/02/23 06:59:35;;;;;;;0.30;0.30;;;4.40;99.90;;;;;;4961516;28;20457;-81
2024/02/23 07:02:04;;;;;;;0.30;0.30;;;4.40;99.90;;;;;;4961232;29;20454;-81
2024/02/23 07:04:30;;;;;;;0.30;0.30;;;4.70;99.90;;;;;;4962676;28;20549;-80
2024/02/23 07:06:57;;;;;;;0.30;0.30;;;4.30;99.90;;;;;;4964595;28;20807;-80
2024/02/23 07:09:24;;;;;;;0.30;0.30;;;4.30;99.90;;;;;;4964097;28;20482;-80
2024/02/23 07:11:50;;;;;;;0.30;0.30;;;4.20;99.90;;;;;;4964099;29;20461;-80
2024/02/23 07:14:18;;;;;;;0.30;0.20;;;4.20;99.90;;;;;;4962148;28;20845;-80
2024/02/23 07:16:44;;;;;;;2.87;1.23;;;4.20;99.90;;;;;;4960932;29;20443;-80
2024/02/23 07:19:12;;;;;;;0.30;0.30;;;4.20;99.90;;;;;;4961157;29;20447;-80
2024/02/23 07:21:39;;;;;;;0.30;0.30;;;4.40;99.90;;;;;;4960628;28;20450;-80
2024/02/23 07:24:07;;;;;;;0.30;0.30;;;4.40;99.90;;;;;;4960041;28;20991;-80
2024/02/23 07:26:33;;;;;;;0.40;0.40;;;4.50;99.90;;;;;;4960165;28;20977;-80
2024/02/23 07:29:00;;;;;;;0.30;0.30;;;4.50;99.90;;;;;;4960430;29;20482;-80
2024/02/23 07:31:27;;;;;;;0.30;0.30;;;4.60;99.90;;;;;;4960961;29;20443;-81
2024/02/23 07:33:53;;;;;;;0.30;0.30;;;5.10;99.90;;;;;;4960487;28;20478;-81
2024/02/23 07:36:22;;;;;;;0.30;0.30;;;4.60;99.90;;;;;;4960512;28;20461;-81
2024/02/23 07:38:48;;;;;;;0.30;0.30;;;4.70;99.90;;;;;;4960313;29;20431;-81
2024/02/23 07:41:17;;;;;;;0.30;0.20;;;4.70;99.90;;;;;;4960252;29;20419;-80
2024/02/23 07:43:44;;;;;;;0.37;0.30;;;4.80;99.90;;;;;;4960302;29;20971;-80
2024/02/23 07:46:11;;;;;;;0.40;0.40;;;5.00;99.90;;;;;;4959807;28;20789;-79
2024/02/23 07:48:38;;;;;;;1.33;0.30;;;4.90;99.90;;;;;;4960298;29;20492;-79
2024/02/23 07:51:06;;;;;;;0.30;0.30;;;5.00;99.90;;;;;;4959766;28;20450;-79
2024/02/23 07:53:35;;;;;;;0.30;0.30;;;5.00;99.90;;;;;;4959718;28;20463;-79
2024/02/23 07:56:03;;;;;;;0.30;0.30;;;5.10;99.90;;;;;;4959485;29;20461;-79
2024/02/23 07:58:30;;;;;;;0.30;0.30;;;5.20;99.90;;;;;;4959824;29;20451;-79
2024/02/23 08:00:56;;;;;;;0.30;0.30;;;5.20;99.90;;;;;;4959897;28;20461;-79
2024/02/23 08:03:23;;;;;;;0.40;0.33;;;5.20;99.90;;;;;;4959784;29;20469;-79
2024/02/23 08:05:50;;;;;;;0.40;0.30;;;5.20;99.90;;;;;;4959725;28;20435;-79
2024/02/23 08:08:16;;;;;;;0.30;0.30;;;5.20;99.90;;;;;;4959712;28;20447;-79
2024/02/23 08:10:45;;;;;;;0.40;0.30;;;5.10;99.90;;;;;;4958951;28;20450;-80
2024/02/23 08:13:11;;;;;;;0.40;0.40;;;5.10;99.90;;;;;;4960104;28;20471;-80
2024/02/23 08:15:38;;;;;;;0.30;0.30;;;5.10;99.90;;;;;;4959909;28;20487;-80
2024/02/23 08:18:05;;;;;;;0.60;0.30;;;5.00;99.90;;;;;;4960008;29;20457;-80
2024/02/23 08:20:32;;;;;;;0.30;0.30;;;5.00;99.90;;;;;;4960082;28;20943;-80
2024/02/23 08:22:59;;;;;;;0.30;0.30;;;5.00;99.90;;;;;;4960327;28;20446;-79
2024/02/23 08:25:28;;;;;;;0.40;0.30;;;5.00;99.90;;;;;;4959819;29;20431;-79
2024/02/23 08:27:56;;;;;;;0.30;0.20;;;5.10;99.90;;;;;;4960444;28;20482;-79
2024/02/23 08:30:24;;;;;;;0.30;0.20;;;5.10;99.90;;;;;;4960324;28;20478;-79
2024/02/23 08:32:51;;;;;;;0.30;0.30;;;5.20;99.90;;;;;;4960268;29;20457;-79
2024/02/23 08:35:18;;;;;;;0.30;0.20;;;5.20;99.90;;;;;;4959807;29;20458;-80
2024/02/23 08:37:45;;;;;;;0.30;0.30;;;5.40;99.90;;;;;;4959821;28;20450;-80
2024/02/23 08:40:12;;;;;;;2.50;0.40;;;5.40;99.90;;;;;;4959787;28;20525;-80
2024/02/23 08:42:39;;;;;;;3.80;0.50;;;5.50;99.90;;;;;;4959684;28;20514;-81
2024/02/23 08:45:09;;;;;;;0.30;0.20;;;5.50;99.90;;;;;;4960971;29;20859;-81
2024/02/23 08:47:36;;;;;;;0.60;0.60;;;5.50;99.90;;;;;;4961256;29;20451;-81
2024/02/23 08:50:04;;;;;;;1.07;0.50;;;5.70;99.90;;;;;;4960112;29;20496;-80
2024/02/23 08:52:31;;;;;;;0.60;0.40;;;5.80;99.90;;;;;;4960663;28;20934;-81
2024/02/23 08:54:57;;;;;;;0.30;0.30;;;6.50;99.90;;;;;;4960416;28;20465;-81
2024/02/23 08:57:24;;;;;;;0.30;0.20;;;6.00;99.90;;;;;;4961281;29;20462;-81
2024/02/23 08:59:52;;;;;;;0.30;0.20;;;6.10;99.90;;;;;;4960342;28;20493;-81
2024/02/23 09:02:20;;;;;;;0.43;0.40;;;5.90;99.90;;;;;;4960596;29;20454;-81
2024/02/23 09:04:46;;;;;;;1.37;0.90;;;6.00;99.90;;;;;;4961144;29;20481;-81
2024/02/23 09:07:13;;;;;;;0.30;0.20;;;6.10;99.90;;;;;;4960064;28;20521;-81
2024/02/23 09:09:39;;;;;;;0.30;0.30;;;5.90;99.90;;;;;;4960265;29;20486;-81
2024/02/23 09:12:10;;;;;;;0.30;0.30;;;5.60;99.90;;;;;;4960158;28;20434;-81
2024/02/23 09:14:37;;;;;;;0.40;0.33;;;5.40;99.90;;;;;;4960057;29;20513;-81
2024/02/23 09:17:05;;;;;;;0.30;0.30;;;5.30;99.90;;;;;;4960544;29;20533;-81
2024/02/23 09:19:34;;;;;;;0.30;0.30;;;6.60;99.90;;;;;;4959980;28;20939;-82
2024/02/23 09:22:02;;;;;;;3.70;0.50;;;6.60;99.90;;;;;;4960069;28;20458;-82
2024/02/23 09:24:31;;;;;;;0.30;0.30;;;5.50;99.90;;;;;;4959849;28;20482;-82
2024/02/23 09:26:57;;;;;;;0.30;0.30;;;6.30;99.90;;;;;;4961418;28;21006;-82
2024/02/23 09:29:24;;;;;;;0.70;0.50;;;5.90;99.90;;;;;;4963752;29;20486;-82
2024/02/23 09:31:54;;;;;;;0.30;0.30;;;6.60;99.90;;;;;;4963981;28;20485;-81
2024/02/23 09:34:21;;;;;;;0.30;0.30;;;7.20;99.90;;;;;;4963814;28;20462;-81
2024/02/23 09:36:51;;;;;;;0.30;0.20;;;8.80;99.90;;;;;;4963489;28;20454;-81
2024/02/23 09:39:19;;;;;;;0.30;0.30;;;8.00;99.90;;;;;;4963912;28;20788;-81
2024/02/23 09:41:51;;;;;;;0.57;0.30;;;8.20;99.90;;;;;;4963877;28;20446;-81
2024/02/23 09:44:33;;;;;;;2.40;0.50;;;9.40;99.90;;;;;;4963338;29;20465;-81
2024/02/23 09:47:07;;;;;;;0.30;0.30;;;8.80;99.90;;;;;;4962957;29;20438;-81
2024/02/23 09:49:36;;;;;;;0.47;0.30;;;8.90;99.90;;;;;;4963164;29;20474;-82
2024/02/23 09:52:07;;;;;;;4.40;0.60;;;8.40;99.90;;;;;;4963084;28;20442;-82
2024/02/23 09:54:34;;;;;;;0.30;0.23;;;8.20;99.90;;;;;;4968094;29;20466;-79
2024/02/23 09:57:05;;;;;;;1.17;0.40;;;8.00;99.90;;;;;;4968301;28;20464;-81
2024/02/23 09:59:33;;;;;;;1.53;0.43;;;8.00;99.90;;;;;;4968322;29;20426;-81
2024/02/23 10:02:00;;;;;;;0.40;0.40;;;7.80;99.90;;;;;;4965678;29;20550;-82
2024/02/23 10:04:29;;;;;;;0.40;0.30;;;8.10;99.90;;;;;;4962815;28;20513;-82
2024/02/23 10:06:56;;;;;;;0.40;0.40;;;8.60;99.90;;;;;;4962909;29;20454;-82
2024/02/23 10:09:25;;;;;;;0.40;0.30;;;9.20;99.90;;;;;;4962131;29;20541;-82
2024/02/23 10:12:09;;;;;;;0.30;0.30;;;9.90;99.90;;;;;;4962478;28;20447;-82
2024/02/23 10:14:57;;;;;;;0.40;0.30;;;10.40;99.90;;;;;;4962499;29;20454;-82
2024/02/23 10:17:33;;;;;;;0.63;0.37;;;10.50;99.90;;;;;;4962431;29;20497;-82
2024/02/23 10:20:24;;;;;;;;;;;;;;;;;;;;;
2024/02/23 10:23:15;;;;;;;0.40;0.30;;;10.50;99.90;;;;;;4964029;29;20490;-82
2024/02/23 10:28:55;;;;;;;4.57;0.40;;;11.20;99.90;;;;;;4962791;29;20453;-81
2024/02/23 10:31:23;;;;;;;0.67;0.40;;;11.80;99.90;;;;;;4963803;29;20509;-81
2024/02/23 10:33:52;;;;;;;0.30;0.30;;;10.30;99.90;;;;;;4963596;28;20463;-82
2024/02/23 10:36:22;;;;;;;0.30;0.30;;;9.90;99.90;;;;;;4963692;28;20545;-82
2024/02/23 10:38:53;;;;;;;4.00;0.30;;;9.40;99.90;;;;;;4963663;28;20888;-82
2024/02/23 10:41:22;;;;;;;0.60;0.30;;;9.20;99.90;;;;;;4963805;29;20419;-82
2024/02/23 10:43:50;;;;;;;0.37;0.30;;;9.10;99.90;;;;;;4963171;29;20857;-80
2024/02/23 10:46:19;;;;;;;0.40;0.40;;;8.80;99.90;;;;;;4962757;29;20493;-81
2024/02/23 10:48:46;;;;;;;0.30;0.20;;;8.80;99.90;;;;;;4963887;28;20505;-81
2024/02/23 10:51:17;;;;;;;0.30;0.30;;;9.20;99.90;;;;;;4963383;29;20474;-82
2024/02/23 10:53:47;;;;;;;0.70;0.30;;;9.20;99.90;;;;;;4962788;29;20481;-82
2024/02/23 10:56:14;;;;;;;0.30;0.30;;;9.70;99.90;;;;;;4963210;28;20944;-82
2024/02/23 10:58:42;;;;;;;0.40;0.40;;;9.80;99.90;;;;;;4963140;29;20442;-80
2024/02/23 11:01:10;;;;;;;0.83;0.60;;;10.00;99.90;;;;;;4962787;29;20447;-81
2024/02/23 11:03:43;;;;;;;0.40;0.30;;;9.90;99.90;;;;;;4962720;29;20496;-81
2024/02/23 11:06:12;;;;;;;0.47;0.30;;;9.70;99.90;;;;;;4962445;29;20446;-81
2024/02/23 11:08:47;;;;;;;0.30;0.30;;;10.20;99.90;;;;;;4962952;29;20502;-81
2024/02/23 11:11:28;;;;;;;0.30;0.30;;;10.70;99.90;;;;;;4963441;29;20476;-81
2024/02/23 11:14:15;;;;;;;0.40;0.40;;;10.00;99.90;;;;;;4963439;29;20454;-81
2024/02/23 11:17:03;;;;;;;0.40;0.30;;;8.90;99.90;;;;;;4963439;28;20454;-81
2024/02/23 11:19:34;;;;;;;0.30;0.30;;;9.40;99.90;;;;;;4963350;28;20458;-81
2024/02/23 11:22:04;;;;;;;0.70;0.50;;;10.60;99.90;;;;;;4961988;28;20451;-81
2024/02/23 11:25:00;;;;;;;0.40;0.30;;;8.00;99.90;;;;;;4961862;28;20610;-81
2024/02/23 11:30:23;;;;;;;0.30;0.30;;;8.40;99.90;;;;;;4960675;29;20486;-82
2024/02/23 11:33:28;;;;;;;0.40;0.30;;;8.60;99.90;;;;;;4962937;29;20423;-82
2024/02/23 11:36:06;;;;;;;0.40;0.30;;;8.10;99.90;;;;;;4950163;29;20442;-82
2024/02/23 11:38:33;;;;;;;0.70;0.30;;;8.10;99.90;;;;;;4965361;29;20454;-82
2024/02/23 11:41:01;;;;;;;0.40;0.30;;;8.10;99.90;;;;;;4966389;29;20447;-82
2024/02/23 11:43:28;;;;;;;0.30;0.20;;;8.30;99.90;;;;;;4965266;29;20454;-82
2024/02/23 11:45:57;;;;;;;0.30;0.30;;;8.40;99.90;;;;;;4964483;28;20434;-82
2024/02/23 11:48:24;;;;;;;1.27;0.70;;;8.40;99.90;;;;;;4963140;28;20458;-81
2024/02/23 11:50:51;;;;;;;0.40;0.30;;;8.30;99.90;;;;;;4961596;28;20490;-83
2024/02/23 11:53:19;;;;;;;0.30;0.30;;;8.10;99.90;;;;;;4961960;29;20469;-81
2024/02/23 11:55:46;;;;;;;1.63;0.40;;;8.10;99.90;;;;;;4962691;29;20458;-81
2024/02/23 11:58:13;;;;;;;0.33;0.30;;;8.00;99.90;;;;;;4962814;28;20450;-81
2024/02/23 12:00:41;;;;;;;0.30;0.30;;;8.00;99.90;;;;;;4962830;28;20453;-81
2024/02/23 12:03:09;;;;;;;0.60;0.30;;;8.90;99.90;;;;;;4963648;29;20447;-81
2024/02/23 12:05:36;;;;;;;0.93;0.40;;;8.30;99.90;;;;;;4963592;29;20486;-81
2024/02/23 12:08:04;;;;;;;0.30;0.30;;;8.60;99.90;;;;;;4963265;28;20460;-81
2024/02/23 12:10:31;;;;;;;11.37;0.50;;;8.70;99.90;;;;;;4965551;28;20499;-81
2024/02/23 12:12:58;;;;;;;1.60;0.87;;;9.70;99.90;;;;;;4966288;28;20461;-81
2024/02/23 12:15:26;;;;;;;0.30;0.30;;;8.90;99.90;;;;;;4966818;28;20455;-82
2024/02/23 12:17:53;;;;;;;0.33;0.30;;;8.70;99.90;;;;;;4964951;28;20515;-82
2024/02/23 12:20:32;;;;;;;0.30;0.30;;;8.70;99.90;;;;;;4964918;29;20435;-81
2024/02/23 12:22:59;;;;;;;3.23;0.40;;;8.40;99.90;;;;;;4964251;28;20450;-81
2024/02/23 12:25:26;;;;;;;0.40;0.30;;;8.40;99.90;;;;;;4963702;29;20457;-82
2024/02/23 12:27:57;;;;;;;0.40;0.30;;;9.70;99.90;;;;;;4966825;29;20454;-81
2024/02/23 12:30:34;;;;;;;0.30;0.30;;;8.10;99.90;;;;;;4965030;28;20509;-81
2024/02/23 12:33:16;;;;;;;0.30;0.30;;;9.10;99.90;;;;;;4963480;29;20474;-82
2024/02/23 12:36:37;;;;;;;1.30;0.37;;;8.00;99.90;;;;;;4963438;29;20457;-82
2024/02/23 12:42:57;;;;;;;1.63;0.40;;;7.60;99.90;;;;;;4957743;28;20518;-81
2024/02/23 12:45:44;;;;;;;1.87;0.27;;;7.70;99.90;;;;;;4961182;28;20462;-81
2024/02/23 12:51:21;;;;;;;0.30;0.30;;;7.80;99.90;;;;;;4958637;29;20487;-81
2024/02/23 12:54:26;;;;;;;0.30;0.30;;;7.80;99.90;;;;;;4960833;29;20498;-81
2024/02/23 13:00:34;;;;;;;3.90;0.40;;;8.10;99.90;;;;;;4959660;29;20465;-81
2024/02/23 13:06:00;;;;;;;0.80;0.33;;;8.00;99.90;;;;;;4958060;23;20485;-81
2024/02/23 13:08:42;;;;;;;0.87;0.40;;;8.00;99.90;;;;;;4960717;29;20435;-81
2024/02/23 13:11:45;;;;;;;2.40;0.50;;;7.90;99.90;;;;;;4959321;29;20514;-82
2024/02/23 13:14:12;;;;;;;0.30;0.30;;;7.80;99.90;;;;;;4943636;29;20517;-80
2024/02/23 13:16:39;;;;;;;0.60;0.30;;;7.70;99.90;;;;;;4959294;29;20808;-81
2024/02/23 13:19:05;;;;;;;0.40;0.40;;;7.60;99.90;;;;;;4959138;29;20440;-82
2024/02/23 13:21:33;;;;;;;2.40;0.60;;;7.50;99.90;;;;;;4960157;29;20451;-81
2024/02/23 13:24:00;;;;;;;2.60;0.50;;;7.50;99.90;;;;;;4959883;29;20463;-81